Weather observations for the past three days for
Bermuda
Imperial (Metric)
Date Time (adt) Wind (mph) Vis. (mi.) Weather Sky Cond. Temperature (ºF) Relative Humidity Wind Chill (°F) Heat Index (°F) Pressure Precipitation (in)
Air Dwpt 6 hour altimeter (in) sea level (mb) 1 hr 3 hr 6 hr
Max. Min.
08 08:55 SW 20 0.00 Mostly Cloudy FEW023 BKN040 BKN057 BKN300 71.6 66.2 83% 0 0.0
08 07:55 SW 18 0.00 Overcast BKN025 BKN045 BKN230 OVC300 71.6 64.4 78% 0 0.0
08 06:55 SW 17 0.00 Overcast BKN027 BKN040 BKN230 OVC300 69.8 64.4 83% 0 0.0
08 05:55 SW 16 0.00 Mostly Cloudy FEW160 BKN220 BKN300 69.8 62.6 78% 0 0.0
08 04:55 SW 16 0.00 Overcast FEW021 SCT150 BKN230 OVC300 69.8 60.8 73% 0 0.0
08 03:55 SW 17 0.00 Overcast FEW021 FEW160 OVC300 69.8 60.8 73% 0 0.0
08 02:55 SW 17 0.00 Overcast FEW021 SCT190 OVC300 69.8 62.6 78% 0 0.0
08 01:55 SW 16 0.00 Mostly Cloudy FEW025 BKN300 68 62.6 83% 0 0.0
08 00:55 SW 15 0.00 Mostly Cloudy FEW025 BKN300 68 60.8 78% 0 0.0
07 23:55 SW 12 0.00 Mostly Cloudy FEW025 BKN300 68 60.8 78% 0 0.0
07 22:55 SW 12 0.00 Mostly Cloudy FEW020 BKN300 68 60.8 78% 0 0.0
07 21:55 SW 10 0.00 Mostly Cloudy FEW020 BKN300 69.8 60.8 73% 0 0.0
07 20:55 W 10 0.00 Mostly Cloudy FEW020 BKN300 69.8 62.6 78% 0 0.0
07 19:55 SW 9 0.00 Mostly Cloudy FEW022 FEW037 BKN300 69.8 60.8 73% 0 0.0
07 18:55 SW 9 0.00 Mostly Cloudy SCT028 BKN300 71.6 62.6 73% 0 0.0
07 17:55 S 12 0.00 Mostly Cloudy SCT025 BKN300 73.4 60.8 65% 0 0.0
07 16:55 S 9 0.00 Mostly Cloudy FEW024 BKN300 73.4 62.6 69% 0 0.0
07 15:55 S 6 0.00 Mostly Cloudy SCT021 BKN300 71.6 62.6 73% 0 0.0
07 14:55 W 6 0.00 Mostly Cloudy FEW029 BKN300 73.4 62.6 69% 0 0.0
07 13:55 S 6 0.00 Mostly Cloudy FEW030 BKN300 73.4 62.6 69% 0 0.0
07 12:55 S 3 0.00 Mostly Cloudy FEW025 BKN300 71.6 62.6 73% 0 0.0
07 11:55 N 5 0.00 Mostly Cloudy FEW018 BKN300 71.6 62.6 73% 0 0.0
07 10:55 NW 6 0.00 Mostly Cloudy FEW018 BKN300 71.6 62.6 73% 0 0.0
07 09:55 NW 9 0.00 Mostly Cloudy FEW015 BKN052 BKN300 71.6 64.4 78% 0 0.0
07 08:55 NW 7 0.00 Partly Cloudy FEW014 SCT300 69.8 64.4 83% 0 0.0
07 07:55 W 7 0.00 A Few Clouds FEW014 68 64.4 88% 0 0.0
07 06:55 W 5 0.00 A Few Clouds FEW014 66.2 62.6 88% 0 0.0
07 05:55 NW 3 0.00 A Few Clouds FEW013 66.2 62.6 88% 0 0.0
07 04:55 W 2 0.00 A Few Clouds FEW013 66.2 64.4 94% 0 0.0
07 03:55 Calm 0.00 A Few Clouds FEW013 66.2 64.4 94% 0 0.0
07 02:55 Calm 0.00 A Few Clouds FEW012 66.2 64.4 94% 0 0.0
07 01:55 N 2 0.00 A Few Clouds FEW014 68 64.4 88% 0 0.0
07 00:55 N 3 0.00 A Few Clouds FEW013 68 64.4 88% 0 0.0
06 23:55 N 6 0.00 Partly Cloudy FEW012 SCT026 68 64.4 88% 0 0.0
06 22:55 N 7 0.00 Partly Cloudy SCT012 68 64.4 88% 0 0.0
06 21:55 N 8 0.00 A Few Clouds FEW012 68 64.4 88% 0 0.0
06 20:55 N 10 0.00 Partly Cloudy FEW012 SCT031 69.8 66.2 88% 0 0.0
06 19:55 N 9 0.00 Showers in Vicinity FEW010 SCT034 69.8 66.2 88% 0 0.0
06 18:55 N 10 0.00 Light Showers Rain BKN012 BKN029 69.8 66.2 88% 0 0.0
06 17:55 NW 10 0.00 Showers in Vicinity FEW015 BKN030 71.6 64.4 78% 0 0.0
06 16:55 N 9 0.00 A Few Clouds FEW017 FEW030 73.4 64.4 74% 0 0.0
06 15:55 N 10 0.00 Light Drizzle BKN019 BKN031 73.4 64.4 74% 0 0.0
06 14:55 N 9 0.00 Mostly Cloudy FEW015 BKN029 73.4 64.4 74% 0 0.0
06 13:55 NE 10 0.00 A Few Clouds FEW015 73.4 66.2 78% 0 0.0
06 12:55 NE 10 0.00 A Few Clouds FEW016 73.4 64.4 74% 0 0.0
06 11:55 NE 10 0.00 A Few Clouds FEW013 73.4 64.4 74% 0 0.0
06 10:55 NE 12 0.00 Showers in Vicinity SCT013 BKN035 71.6 66.2 83% 0 0.0
06 09:55 NE 7 0.00 Showers in Vicinity FEW007 BKN029 69.8 66.2 88% 0 0.0
06 08:55 N 8 0.00 Showers in Vicinity FEW009 BKN027 69.8 66.2 88% 0 0.0
06 07:55 NW 9 0.00 Showers in Vicinity BKN008 BKN027 68 66.2 94% 0 0.0
06 06:55 N 10 0.00 Showers in Vicinity FEW008 SCT025 BKN041 68 64.4 88% 0 0.0
06 05:55 N 12 0.00 Showers in Vicinity FEW008 SCT029 68 64.4 88% 0 0.0
06 04:55 N 12 0.00 Showers in Vicinity FEW012 SCT025 BKN048 BKN300 68 66.2 94% 0 0.0
06 03:55 N 12 0.00 Showers in Vicinity FEW011 SCT025 BKN048 BKN300 68 64.4 88% 0 0.0
06 02:55 N 7 0.00 Light Showers Rain SCT019 BKN037 BKN300 68 64.4 88% 0 0.0
06 01:55 NE 9 0.00 Showers in Vicinity FEW008 SCT020 BKN034 BKN300 68 66.2 94% 0 0.0
06 00:55 N 8 0.00 Showers Rain SCT009 BKN036 BKN300 68 66.2 94% 0 0.0
05 23:55 NE 8 0.00 Showers Rain SCT008 BKN027 BKN300 68 64.4 88% 0 0.0
05 22:55 NE 9 0.00 Light Showers Rain FEW010 BKN042 BKN300 68 64.4 88% 0 0.0
05 21:55 NE 10 0.00 Mostly Cloudy FEW012 BKN031 BKN300 68 64.4 88% 0 0.0
05 20:55 NE 10 0.00 Mostly Cloudy FEW011 BKN033 BKN300 68 64.4 88% 0 0.0
05 19:55 NE 10 0.00 Mostly Cloudy BKN009 BKN035 BKN300 68 66.2 94% 0 0.0
05 18:55 NE 12 0.00 Showers in Vicinity SCT008 BKN030 BKN300 68 64.4 88% 0 0.0
05 17:55 NE 14 0.00 Mostly Cloudy SCT010 BKN021 BKN034 BKN300 69.8 64.4 83% 0 0.0
05 16:55 NE 14 0.00 Mostly Cloudy FEW015 BKN025 BKN300 69.8 62.6 78% 0 0.0
05 15:55 NE 17 0.00 Mostly Cloudy FEW014 BKN027 BKN300 71.6 64.4 78% 0 0.0
05 14:55 NE 17 0.00 Mostly Cloudy SCT016 BKN300 71.6 62.6 73% 0 0.0
05 13:55 NE 20 0.00 Mostly Cloudy SCT016 BKN300 71.6 64.4 78% 0 0.0
05 12:55 NE 18 0.00 Showers in Vicinity FEW016 SCT037 BKN300 69.8 62.6 78% 0 0.0
05 11:55 E 17 0.00 Showers in Vicinity SCT015 BKN050 BKN300 71.6 62.6 73% 0 0.0
05 10:55 NE 17 0.00 Showers in Vicinity SCT017 BKN220 BKN300 69.8 62.6 78% 0 0.0
05 09:55 NE 14 0.00 Mostly Cloudy FEW016 FEW043 BKN300 68 60.8 78% 0 0.0
Date Time (adt) Wind (mph) Vis. (mi.) Weather Sky Cond. Air Dwpt Max. Min. Relative Humidity Wind Chill (°F) Heat Index (°F) altimeter (in) sea level (mb) 1 hr 3 hr 6 hr
6 hour
Temperature (ºF) Pressure Precipitation (in)